Futenma Marine Corps Air Facility, Japan

7:52 AM JST on July 23, 2014 (GMT +0900)
Hiyagon (IOKINAWA14) Elev 23 ft | 26.32 °N, 127.82 °E | Change Station

Current weather conditions updated 16 seconds ago

Mostly Cloudy
Mostly Cloudy
84.9 °F
Feels Like 97 °F
N
0.0
Wind Variable Wind from ENE
Gusts 0.0 mph

Today is forecast to be Cooler than yesterday.

Today
High -- | Low -- °F
--% Chance of Precip.
Yesterday
High -- | Low -- °F
Precip. -- in
5:49 AM 7:21 PM
Waning Crescent, 14% visible
Pressure 29.77 in
Visibility 10.0 miles
Clouds Mostly Cloudy 1900 ft
Mostly Cloudy 2600 ft
Mostly Cloudy 4100 ft
Heat Index 97 °F
Dew Point 78 °F
Humidity 80%
Rainfall 0.00 in
Snow Depth Not available.
UV 1 out of 12
Pollen Not available.
Air Quality Not available.
Flu Activity Not available.
SPECI RODN 222236Z AUTO 13013G21KT 10SM BKN019 BKN026 BKN041 29/27 A2977 RMK AO2 CIG 019V041 BKN019 V SCT VISNO RWY23 $

More Conditions Fewer Conditions

Pressure 29.77 in
Visibility 10.0 miles
Clouds Mostly Cloudy 1900 ft
Mostly Cloudy 2600 ft
Mostly Cloudy 4100 ft
Heat Index 97 °F
Dew Point 78 °F
Humidity 80%
Rainfall 0.00 in
Snow Depth Not available.
UV 1 out of 12
Pollen Not available.
Air Quality Not available.
Flu Activity Not available.
SPECI RODN 222236Z AUTO 13013G21KT 10SM BKN019 BKN026 BKN041 29/27 A2977 RMK AO2 CIG 019V041 BKN019 V SCT VISNO RWY23 $

More Conditions Fewer Conditions

10-Day Weather Forecast

Almanac

Astronomy

Jul. 23, 2014 Rise Set
Actual Time 5:49 AM JST 7:21 PM JST
Civil Twilight 5:24 AM JST 7:46 PM JST
Nautical Twilight 4:54 AM JST 8:16 PM JST
Astronomical Twilight 4:22 AM JST 8:48 PM JST
Moon 2:37 AM JST (7/23) 4:21 PM JST (7/23)
Length of Visible Light 14h 21m
Length of Day
13h 31m
Tomorrow will be 0m 57s shorter.
Waning Crescent, 14% of the Moon is Illuminated
Jul 22
Waning Crescent
Jul 26
New
Aug 3
First Quarter
Aug 10
Full
Aug 17
Last Quarter

Yesterday's Extremes

Country Highs Country Lows

Community

WunderPhotos

Upload Photos

1,736,381 photos uploaded!

Nearby

Snow Depth

Not available.

Earthquake Activity

City Distance Mag. Time & Date
No recent earthquake activity has been reported nearby.
Minimum magnitude displayed is 2.5.

Coastal Water Temperatures

Place Temperature
No Stations Reporting

Nearby Weather Stations

Station Location Temp. Heat Index Dew Point Humidity Wind Precip. Elev Updated Type
Hiyagon, Okinawa 84.9 °F 97 °F 78 °F 80% ENE  at  0.0 mph 0.00 in / hr 23 ft 7:51 AM JST Rapid Fire
Camp Hansen Range Control Okinawa Japan, Kin 83.7 °F 95 °F 78 °F 84% ESE  at  12.0 mph 0.00 in / hr 210 ft 7:51 AM JST Rapid Fire

Show More Stations Show Fewer Stations